sensor_id;sensor_type;location;lat;lon;timestamp;pressure;altitude;pressure_sealevel;temperature;humidity
12987;BME280;58897;51.960;5.582;2022-12-31T00:00:06;100078.59;;;11.54;100.00
12987;BME280;58897;51.960;5.582;2022-12-31T00:02:33;100067.69;;;11.48;100.00
12987;BME280;58897;51.960;5.582;2022-12-31T00:04:59;100074.22;;;11.53;100.00
12987;BME280;58897;51.960;5.582;2022-12-31T00:07:26;100072.72;;;11.51;100.00
12987;BME280;58897;51.960;5.582;2022-12-31T00:09:52;100073.94;;;11.48;100.00
12987;BME280;58897;51.960;5.582;2022-12-31T00:12:19;100067.31;;;11.51;100.00
12987;BME280;58897;51.960;5.582;2022-12-31T00:14:46;100067.03;;;11.46;100.00
12987;BME280;58897;51.960;5.582;2022-12-31T00:17:13;100075.63;;;11.49;100.00
12987;BME280;58897;51.960;5.582;2022-12-31T00:19:39;100066.84;;;11.47;100.00
12987;BME280;58897;51.960;5.582;2022-12-31T00:22:06;100070.59;;;11.46;100.00
12987;BME280;58897;51.960;5.582;2022-12-31T00:24:32;100083.25;;;11.46;100.00
12987;BME280;58897;51.960;5.582;2022-12-31T00:27:01;100082.78;;;11.42;100.00
12987;BME280;58897;51.960;5.582;2022-12-31T00:29:27;100075.34;;;11.44;100.00
12987;BME280;58897;51.960;5.582;2022-12-31T00:31:54;100076.72;;;11.40;100.00
12987;BME280;58897;51.960;5.582;2022-12-31T00:34:20;100071.31;;;11.40;100.00
12987;BME280;58897;51.960;5.582;2022-12-31T00:36:47;100084.56;;;11.35;100.00
12987;BME280;58897;51.960;5.582;2022-12-31T00:39:14;100097.16;;;11.28;100.00
12987;BME280;58897;51.960;5.582;2022-12-31T00:41:40;100099.03;;;11.28;100.00
12987;BME280;58897;51.960;5.582;2022-12-31T00:44:12;100079.09;;;11.29;100.00
12987;BME280;58897;51.960;5.582;2022-12-31T00:46:39;100088.00;;;11.29;100.00
12987;BME280;58897;51.960;5.582;2022-12-31T00:49:04;100088.56;;;11.25;100.00
12987;BME280;58897;51.960;5.582;2022-12-31T00:51:31;100081.88;;;11.21;100.00
12987;BME280;58897;51.960;5.582;2022-12-31T00:53:58;100090.78;;;11.21;100.00
12987;BME280;58897;51.960;5.582;2022-12-31T00:56:27;100095.75;;;11.18;100.00
12987;BME280;58897;51.960;5.582;2022-12-31T00:58:55;100109.44;;;11.16;100.00
12987;BME280;58897;51.960;5.582;2022-12-31T01:01:36;100096.97;;;11.15;100.00
12987;BME280;58897;51.960;5.582;2022-12-31T01:04:10;100101.03;;;11.11;100.00
12987;BME280;58897;51.960;5.582;2022-12-31T01:06:37;100093.97;;;11.10;100.00
12987;BME280;58897;51.960;5.582;2022-12-31T01:09:05;100093.13;;;11.09;100.00
12987;BME280;58897;51.960;5.582;2022-12-31T01:11:32;100103.09;;;11.09;100.00
12987;BME280;58897;51.960;5.582;2022-12-31T01:14:12;100088.94;;;11.07;100.00
12987;BME280;58897;51.960;5.582;2022-12-31T01:16:41;100087.25;;;11.06;100.00
12987;BME280;58897;51.960;5.582;2022-12-31T01:19:13;100080.34;;;11.03;100.00
12987;BME280;58897;51.960;5.582;2022-12-31T01:21:41;100087.59;;;11.03;100.00
12987;BME280;58897;51.960;5.582;2022-12-31T01:24:09;100086.31;;;10.99;100.00
12987;BME280;58897;51.960;5.582;2022-12-31T01:26:36;100077.19;;;11.00;100.00
12987;BME280;58897;51.960;5.582;2022-12-31T01:29:04;100079.22;;;10.98;100.00
12987;BME280;58897;51.960;5.582;2022-12-31T01:31:32;100068.41;;;10.98;100.00
12987;BME280;58897;51.960;5.582;2022-12-31T01:33:59;100065.91;;;10.96;100.00
12987;BME280;58897;51.960;5.582;2022-12-31T01:36:28;100066.75;;;10.97;100.00
12987;BME280;58897;51.960;5.582;2022-12-31T01:38:57;100073.81;;;10.98;100.00
12987;BME280;58897;51.960;5.582;2022-12-31T01:41:29;100079.03;;;10.99;100.00
12987;BME280;58897;51.960;5.582;2022-12-31T01:46:51;100101.88;;;10.97;100.00
12987;BME280;58897;51.960;5.582;2022-12-31T01:49:19;100087.03;;;10.93;100.00
12987;BME280;58897;51.960;5.582;2022-12-31T01:51:51;100090.41;;;10.95;100.00
12987;BME280;58897;51.960;5.582;2022-12-31T01:54:21;100085.19;;;10.93;100.00
12987;BME280;58897;51.960;5.582;2022-12-31T01:56:51;100088.53;;;10.95;100.00
12987;BME280;58897;51.960;5.582;2022-12-31T01:59:20;100108.84;;;10.91;100.00
12987;BME280;58897;51.960;5.582;2022-12-31T02:01:47;100122.34;;;10.91;100.00
12987;BME280;58897;51.960;5.582;2022-12-31T02:04:21;100118.81;;;10.91;100.00
12987;BME280;58897;51.960;5.582;2022-12-31T02:06:54;100131.66;;;10.89;100.00
12987;BME280;58897;51.960;5.582;2022-12-31T02:09:21;100144.34;;;10.88;100.00
12987;BME280;58897;51.960;5.582;2022-12-31T02:11:48;100132.50;;;10.89;100.00
12987;BME280;58897;51.960;5.582;2022-12-31T02:14:18;100125.78;;;10.85;100.00
12987;BME280;58897;51.960;5.582;2022-12-31T02:22:35;100101.81;;;10.82;100.00
12987;BME280;58897;51.960;5.582;2022-12-31T02:28:56;100092.78;;;10.75;100.00
12987;BME280;58897;51.960;5.582;2022-12-31T02:33:39;100086.25;;;10.70;100.00
12987;BME280;58897;51.960;5.582;2022-12-31T02:36:12;100076.28;;;10.70;100.00
12987;BME280;58897;51.960;5.582;2022-12-31T02:38:45;100086.25;;;10.70;100.00
12987;BME280;58897;51.960;5.582;2022-12-31T02:41:14;100084.38;;;10.70;100.00
12987;BME280;58897;51.960;5.582;2022-12-31T02:47:09;100083.25;;;10.65;100.00
12987;BME280;58897;51.960;5.582;2022-12-31T02:50:04;100083.25;;;10.65;100.00
12987;BME280;58897;51.960;5.582;2022-12-31T02:55:31;100083.59;;;10.62;100.00
12987;BME280;58897;51.960;5.582;2022-12-31T03:00:50;100087.50;;;10.59;100.00
12987;BME280;58897;51.960;5.582;2022-12-31T03:03:38;100101.00;;;10.59;100.00
12987;BME280;58897;51.960;5.582;2022-12-31T03:06:06;100101.00;;;10.59;100.00
12987;BME280;58897;51.960;5.582;2022-12-31T03:08:34;100103.91;;;10.58;100.00
12987;BME280;58897;51.960;5.582;2022-12-31T03:11:22;100108.81;;;10.54;100.00
12987;BME280;58897;51.960;5.582;2022-12-31T03:14:07;100105.28;;;10.53;100.00
12987;BME280;58897;51.960;5.582;2022-12-31T03:16:33;100105.28;;;10.53;100.00
12987;BME280;58897;51.960;5.582;2022-12-31T03:19:00;100093.81;;;10.51;100.00
12987;BME280;58897;51.960;5.582;2022-12-31T03:21:45;100109.00;;;10.52;100.00
12987;BME280;58897;51.960;5.582;2022-12-31T03:24:30;100098.56;;;10.49;100.00
12987;BME280;58897;51.960;5.582;2022-12-31T03:27:15;100105.31;;;10.45;100.00
12987;BME280;58897;51.960;5.582;2022-12-31T03:29:41;100114.13;;;10.47;100.00
12987;BME280;58897;51.960;5.582;2022-12-31T03:32:08;100106.53;;;10.43;100.00
12987;BME280;58897;51.960;5.582;2022-12-31T03:34:34;100109.91;;;10.45;100.00
12987;BME280;58897;51.960;5.582;2022-12-31T03:37:01;100105.53;;;10.44;100.00
12987;BME280;58897;51.960;5.582;2022-12-31T03:39:27;100108.72;;;10.47;100.00
12987;BME280;58897;51.960;5.582;2022-12-31T03:41:53;100112.25;;;10.48;100.00
12987;BME280;58897;51.960;5.582;2022-12-31T03:44:20;100103.31;;;10.47;100.00
12987;BME280;58897;51.960;5.582;2022-12-31T03:46:47;100104.97;;;10.48;100.00
12987;BME280;58897;51.960;5.582;2022-12-31T03:49:13;100119.16;;;10.50;100.00
12987;BME280;58897;51.960;5.582;2022-12-31T03:51:40;100117.28;;;10.51;100.00
12987;BME280;58897;51.960;5.582;2022-12-31T03:54:06;100124.56;;;10.50;100.00
12987;BME280;58897;51.960;5.582;2022-12-31T03:56:33;100125.75;;;10.48;100.00
12987;BME280;58897;51.960;5.582;2022-12-31T03:58:59;100119.31;;;10.49;100.00
12987;BME280;58897;51.960;5.582;2022-12-31T04:01:26;100122.22;;;10.47;100.00
12987;BME280;58897;51.960;5.582;2022-12-31T04:03:52;100118.31;;;10.50;100.00
12987;BME280;58897;51.960;5.582;2022-12-31T04:06:19;100125.06;;;10.46;100.00
12987;BME280;58897;51.960;5.582;2022-12-31T04:08:45;100128.47;;;10.48;100.00
12987;BME280;58897;51.960;5.582;2022-12-31T04:11:12;100118.81;;;10.45;100.00
12987;BME280;58897;51.960;5.582;2022-12-31T04:13:46;100120.88;;;10.43;100.00
12987;BME280;58897;51.960;5.582;2022-12-31T04:16:12;100107.22;;;10.45;100.00
12987;BME280;58897;51.960;5.582;2022-12-31T04:18:39;100109.91;;;10.45;100.00
12987;BME280;58897;51.960;5.582;2022-12-31T04:21:05;100102.81;;;10.44;100.00
12987;BME280;58897;51.960;5.582;2022-12-31T04:23:32;100105.53;;;10.44;100.00
12987;BME280;58897;51.960;5.582;2022-12-31T04:25:58;100093.88;;;10.43;100.00
12987;BME280;58897;51.960;5.582;2022-12-31T04:28:25;100088.47;;;10.43;100.00
12987;BME280;58897;51.960;5.582;2022-12-31T04:30:51;100092.22;;;10.42;100.00
12987;BME280;58897;51.960;5.582;2022-12-31T04:33:18;100083.06;;;10.43;100.00
12987;BME280;58897;51.960;5.582;2022-12-31T04:35:44;100083.06;;;10.43;100.00
12987;BME280;58897;51.960;5.582;2022-12-31T04:38:10;100076.81;;;10.43;100.00
12987;BME280;58897;51.960;5.582;2022-12-31T04:40:37;100069.56;;;10.43;100.00
12987;BME280;58897;51.960;5.582;2022-12-31T04:43:26;100063.53;;;10.41;100.00
12987;BME280;58897;51.960;5.582;2022-12-31T04:45:53;100067.91;;;10.42;100.00
12987;BME280;58897;51.960;5.582;2022-12-31T04:48:19;100074.97;;;10.43;100.00
12987;BME280;58897;51.960;5.582;2022-12-31T04:50:46;100081.41;;;10.42;100.00
12987;BME280;58897;51.960;5.582;2022-12-31T04:53:12;100076.00;;;10.42;100.00
12987;BME280;58897;51.960;5.582;2022-12-31T04:55:40;100074.97;;;10.43;100.00
12987;BME280;58897;51.960;5.582;2022-12-31T04:58:06;100082.91;;;10.45;100.00
12987;BME280;58897;51.960;5.582;2022-12-31T05:00:33;100083.38;;;10.48;100.00
12987;BME280;58897;51.960;5.582;2022-12-31T05:02:59;100078.81;;;10.49;100.00
12987;BME280;58897;51.960;5.582;2022-12-31T05:05:26;100078.25;;;10.53;100.00
12987;BME280;58897;51.960;5.582;2022-12-31T05:07:52;100084.50;;;10.54;100.00
12987;BME280;58897;51.960;5.582;2022-12-31T05:10:19;100094.75;;;10.59;100.00
12987;BME280;58897;51.960;5.582;2022-12-31T05:12:45;100096.47;;;10.60;100.00
12987;BME280;58897;51.960;5.582;2022-12-31T05:15:11;100092.06;;;10.59;100.00
12987;BME280;58897;51.960;5.582;2022-12-31T05:17:38;100097.94;;;10.62;100.00
12987;BME280;58897;51.960;5.582;2022-12-31T05:20:05;100085.47;;;10.61;100.00
12987;BME280;58897;51.960;5.582;2022-12-31T05:22:32;100085.78;;;10.66;100.00
12987;BME280;58897;51.960;5.582;2022-12-31T05:24:59;100079.34;;;10.67;100.00
12987;BME280;58897;51.960;5.582;2022-12-31T05:27:27;100086.25;;;10.70;100.00
12987;BME280;58897;51.960;5.582;2022-12-31T05:29:53;100088.09;;;10.69;100.00
12987;BME280;58897;51.960;5.582;2022-12-31T05:32:20;100086.53;;;10.75;100.00
12987;BME280;58897;51.960;5.582;2022-12-31T05:34:47;100093.13;;;10.72;100.00
12987;BME280;58897;51.960;5.582;2022-12-31T05:37:13;100099.19;;;10.74;100.00
12987;BME280;58897;51.960;5.582;2022-12-31T05:39:40;100100.03;;;10.75;100.00
12987;BME280;58897;51.960;5.582;2022-12-31T05:42:06;100094.63;;;10.75;100.00
12987;BME280;58897;51.960;5.582;2022-12-31T05:44:32;100097.34;;;10.75;100.00
12987;BME280;58897;51.960;5.582;2022-12-31T05:46:59;100093.63;;;10.76;100.00
12987;BME280;58897;51.960;5.582;2022-12-31T05:49:25;100106.94;;;10.77;100.00
12987;BME280;58897;51.960;5.582;2022-12-31T05:51:52;100102.22;;;10.79;100.00
12987;BME280;58897;51.960;5.582;2022-12-31T05:54:18;100104.72;;;10.81;100.00
12987;BME280;58897;51.960;5.582;2022-12-31T05:56:45;100112.63;;;10.82;100.00
12987;BME280;58897;51.960;5.582;2022-12-31T05:59:11;100117.38;;;10.80;100.00
12987;BME280;58897;51.960;5.582;2022-12-31T06:01:38;100119.06;;;10.81;100.00
12987;BME280;58897;51.960;5.582;2022-12-31T06:04:04;100118.44;;;10.79;100.00
12987;BME280;58897;51.960;5.582;2022-12-31T06:06:31;100106.94;;;10.77;100.00
12987;BME280;58897;51.960;5.582;2022-12-31T06:08:57;100118.22;;;10.81;100.00
12987;BME280;58897;51.960;5.582;2022-12-31T06:11:24;100115.53;;;10.81;100.00
12987;BME280;58897;51.960;5.582;2022-12-31T06:13:50;100120.75;;;10.82;100.00
12987;BME280;58897;51.960;5.582;2022-12-31T06:16:17;100112.63;;;10.82;100.00
12987;BME280;58897;51.960;5.582;2022-12-31T06:18:46;100116.38;;;10.81;100.00
12987;BME280;58897;51.960;5.582;2022-12-31T06:21:12;100114.31;;;10.83;100.00
12987;BME280;58897;51.960;5.582;2022-12-31T06:23:41;100120.56;;;10.84;100.00
12987;BME280;58897;51.960;5.582;2022-12-31T06:26:07;100111.06;;;10.88;100.00
12987;BME280;58897;51.960;5.582;2022-12-31T06:28:34;100125.72;;;10.93;100.00
12987;BME280;58897;51.960;5.582;2022-12-31T06:31:05;100126.56;;;10.94;100.00
12987;BME280;58897;51.960;5.582;2022-12-31T06:33:33;100124.34;;;10.97;100.00
12987;BME280;58897;51.960;5.582;2022-12-31T06:36:03;100129.19;;;11.02;100.00
12987;BME280;58897;51.960;5.582;2022-12-31T06:38:31;100131.88;;;11.02;100.00
12987;BME280;58897;51.960;5.582;2022-12-31T06:41:05;100127.25;;;11.10;100.00
12987;BME280;58897;51.960;5.582;2022-12-31T06:43:33;100132.66;;;11.10;100.00
12987;BME280;58897;51.960;5.582;2022-12-31T06:46:04;100129.31;;;11.23;100.00
12987;BME280;58897;51.960;5.582;2022-12-31T06:48:31;100140.59;;;11.27;100.00
12987;BME280;58897;51.960;5.582;2022-12-31T06:51:05;100141.00;;;11.38;100.00
12987;BME280;58897;51.960;5.582;2022-12-31T06:53:38;100153.66;;;11.52;100.00
12987;BME280;58897;51.960;5.582;2022-12-31T06:56:13;100132.88;;;11.53;100.00
12987;BME280;58897;51.960;5.582;2022-12-31T06:58:40;100128.50;;;11.66;100.00
12987;BME280;58897;51.960;5.582;2022-12-31T07:06:48;100117.78;;;11.88;100.00
12987;BME280;58897;51.960;5.582;2022-12-31T07:09:25;100132.22;;;11.95;100.00
12987;BME280;58897;51.960;5.582;2022-12-31T07:14:40;100124.47;;;12.06;100.00
12987;BME280;58897;51.960;5.582;2022-12-31T07:17:46;100133.53;;;11.99;100.00
12987;BME280;58897;51.960;5.582;2022-12-31T07:20:17;100142.31;;;12.01;100.00
12987;BME280;58897;51.960;5.582;2022-12-31T07:22:45;100136.41;;;11.97;100.00
12987;BME280;58897;51.960;5.582;2022-12-31T07:25:16;100128.41;;;12.04;100.00
12987;BME280;58897;51.960;5.582;2022-12-31T07:31:02;100129.50;;;12.09;100.00
12987;BME280;58897;51.960;5.582;2022-12-31T07:36:27;100143.03;;;12.09;100.00
12987;BME280;58897;51.960;5.582;2022-12-31T07:41:53;100125.84;;;12.17;100.00
12987;BME280;58897;51.960;5.582;2022-12-31T07:47:25;100138.34;;;12.18;100.00
12987;BME280;58897;51.960;5.582;2022-12-31T07:49:53;100135.97;;;12.29;100.00
12987;BME280;58897;51.960;5.582;2022-12-31T07:52:21;100140.94;;;12.26;100.00
12987;BME280;58897;51.960;5.582;2022-12-31T07:54:48;100175.66;;;12.37;100.00
12987;BME280;58897;51.960;5.582;2022-12-31T07:57:16;100159.19;;;12.38;100.00
12987;BME280;58897;51.960;5.582;2022-12-31T08:05:43;100164.28;;;12.27;100.00
12987;BME280;58897;51.960;5.582;2022-12-31T08:08:35;100175.59;;;12.16;100.00
12987;BME280;58897;51.960;5.582;2022-12-31T08:11:17;100169.44;;;12.07;100.00
12987;BME280;58897;51.960;5.582;2022-12-31T08:13:45;100165.66;;;12.02;100.00
12987;BME280;58897;51.960;5.582;2022-12-31T08:16:13;100169.84;;;12.04;100.00
12987;BME280;58897;51.960;5.582;2022-12-31T08:18:40;100178.97;;;12.03;100.00
12987;BME280;58897;51.960;5.582;2022-12-31T08:21:19;100162.75;;;12.03;100.00
12987;BME280;58897;51.960;5.582;2022-12-31T08:24:13;100178.97;;;12.03;100.00
12987;BME280;58897;51.960;5.582;2022-12-31T08:27:04;100190.00;;;12.02;100.00
12987;BME280;58897;51.960;5.582;2022-12-31T08:32:25;100205.22;;;12.03;100.00
12987;BME280;58897;51.960;5.582;2022-12-31T08:40:37;100232.75;;;12.06;100.00
12987;BME280;58897;51.960;5.582;2022-12-31T08:43:24;100228.06;;;12.00;100.00
12987;BME280;58897;51.960;5.582;2022-12-31T08:45:55;100231.63;;;12.01;100.00
12987;BME280;58897;51.960;5.582;2022-12-31T08:48:34;100263.47;;;11.99;100.00
12987;BME280;58897;51.960;5.582;2022-12-31T08:51:04;100262.41;;;12.00;100.00
12987;BME280;58897;51.960;5.582;2022-12-31T08:53:31;100270.53;;;12.00;100.00
12987;BME280;58897;51.960;5.582;2022-12-31T08:56:06;100273.94;;;12.02;100.00
12987;BME280;58897;51.960;5.582;2022-12-31T09:01:16;100287.06;;;12.05;100.00
12987;BME280;58897;51.960;5.582;2022-12-31T09:03:56;100285.69;;;12.09;100.00
12987;BME280;58897;51.960;5.582;2022-12-31T09:06:43;100292.31;;;12.06;100.00
12987;BME280;58897;51.960;5.582;2022-12-31T09:09:19;100295.66;;;12.08;100.00
12987;BME280;58897;51.960;5.582;2022-12-31T09:11:53;100289.88;;;12.11;100.00
12987;BME280;58897;51.960;5.582;2022-12-31T09:17:35;100315.00;;;12.20;100.00
12987;BME280;58897;51.960;5.582;2022-12-31T09:20:16;100310.88;;;12.24;100.00
12987;BME280;58897;51.960;5.582;2022-12-31T09:22:43;100323.00;;;12.28;100.00
12987;BME280;58897;51.960;5.582;2022-12-31T09:25:14;100326.84;;;12.33;100.00
12987;BME280;58897;51.960;5.582;2022-12-31T09:33:46;100312.47;;;12.48;100.00
12987;BME280;58897;51.960;5.582;2022-12-31T09:36:22;100320.22;;;12.51;100.00
12987;BME280;58897;51.960;5.582;2022-12-31T09:39:07;100322.63;;;12.60;100.00
12987;BME280;58897;51.960;5.582;2022-12-31T09:53:17;100326.31;;;12.88;100.00
12987;BME280;58897;51.960;5.582;2022-12-31T09:58:42;100316.00;;;13.13;100.00
12987;BME280;58897;51.960;5.582;2022-12-31T10:01:31;100318.22;;;13.24;100.00
12987;BME280;58897;51.960;5.582;2022-12-31T10:23:16;100306.41;;;13.53;100.00
12987;BME280;58897;51.960;5.582;2022-12-31T10:26:00;100322.59;;;13.68;100.00
12987;BME280;58897;51.960;5.582;2022-12-31T10:37:03;100309.88;;;13.68;100.00
12987;BME280;58897;51.960;5.582;2022-12-31T10:48:36;100314.91;;;13.71;100.00
12987;BME280;58897;51.960;5.582;2022-12-31T10:51:15;100315.16;;;13.76;100.00
12987;BME280;58897;51.960;5.582;2022-12-31T10:59:28;100314.50;;;13.74;100.00
12987;BME280;58897;51.960;5.582;2022-12-31T11:02:25;100297.78;;;13.71;100.00
12987;BME280;58897;51.960;5.582;2022-12-31T11:11:16;100303.72;;;13.59;100.00
12987;BME280;58897;51.960;5.582;2022-12-31T11:17:18;100305.00;;;13.63;100.00
12987;BME280;58897;51.960;5.582;2022-12-31T11:20:21;100284.13;;;13.64;100.00
12987;BME280;58897;51.960;5.582;2022-12-31T11:34:41;100304.59;;;14.15;100.00
12987;BME280;58897;51.960;5.582;2022-12-31T11:46:01;100300.28;;;14.28;100.00
12987;BME280;58897;51.960;5.582;2022-12-31T11:48:42;100277.25;;;14.23;100.00
12987;BME280;58897;51.960;5.582;2022-12-31T11:57:07;100297.88;;;14.11;100.00
12987;BME280;58897;51.960;5.582;2022-12-31T11:59:38;100288.84;;;14.04;100.00
12987;BME280;58897;51.960;5.582;2022-12-31T12:02:22;100308.84;;;13.97;100.00
12987;BME280;58897;51.960;5.582;2022-12-31T12:04:51;100301.13;;;14.00;100.00
12987;BME280;58897;51.960;5.582;2022-12-31T12:07:18;100311.75;;;13.95;100.00
12987;BME280;58897;51.960;5.582;2022-12-31T12:09:46;100313.69;;;14.01;100.00
12987;BME280;58897;51.960;5.582;2022-12-31T12:12:13;100308.34;;;14.14;100.00
12987;BME280;58897;51.960;5.582;2022-12-31T12:14:43;100302.06;;;14.14;100.00
12987;BME280;58897;51.960;5.582;2022-12-31T12:17:28;100299.56;;;14.12;100.00
12987;BME280;58897;51.960;5.582;2022-12-31T12:20:13;100294.53;;;14.16;100.00
12987;BME280;58897;51.960;5.582;2022-12-31T12:22:48;100301.38;;;14.05;100.00
12987;BME280;58897;51.960;5.582;2022-12-31T12:25:21;100318.16;;;14.15;100.00
12987;BME280;58897;51.960;5.582;2022-12-31T12:27:48;100300.63;;;14.18;100.00
12987;BME280;58897;51.960;5.582;2022-12-31T12:30:21;100283.19;;;14.06;100.00
12987;BME280;58897;51.960;5.582;2022-12-31T12:32:56;100265.00;;;14.00;100.00
12987;BME280;58897;51.960;5.582;2022-12-31T12:35:26;100283.75;;;13.95;100.00
12987;BME280;58897;51.960;5.582;2022-12-31T12:37:58;100295.22;;;13.90;100.00
12987;BME280;58897;51.960;5.582;2022-12-31T12:40:25;100303.09;;;13.85;100.00
12987;BME280;58897;51.960;5.582;2022-12-31T12:43:01;100303.31;;;13.84;100.00
12987;BME280;58897;51.960;5.582;2022-12-31T12:45:36;100291.59;;;13.83;100.00
12987;BME280;58897;51.960;5.582;2022-12-31T12:48:14;100308.94;;;13.82;100.00
12987;BME280;58897;51.960;5.582;2022-12-31T12:50:44;100298.06;;;13.82;100.00
12987;BME280;58897;51.960;5.582;2022-12-31T12:53:26;100303.34;;;13.90;100.00
12987;BME280;58897;51.960;5.582;2022-12-31T13:02:12;100312.03;;;14.07;100.00
12987;BME280;58897;51.960;5.582;2022-12-31T13:07:46;100315.53;;;14.01;100.00
12987;BME280;58897;51.960;5.582;2022-12-31T13:16:05;100309.88;;;13.96;100.00
12987;BME280;58897;51.960;5.582;2022-12-31T13:18:44;100323.19;;;13.91;100.00
12987;BME280;58897;51.960;5.582;2022-12-31T13:21:43;100329.88;;;13.88;100.00
12987;BME280;58897;51.960;5.582;2022-12-31T13:29:45;100331.88;;;13.80;100.00
12987;BME280;58897;51.960;5.582;2022-12-31T13:32:18;100333.56;;;13.81;100.00
12987;BME280;58897;51.960;5.582;2022-12-31T13:34:50;100331.09;;;13.86;100.00
12987;BME280;58897;51.960;5.582;2022-12-31T13:37:24;100324.13;;;13.77;100.00
12987;BME280;58897;51.960;5.582;2022-12-31T13:40:02;100339.34;;;13.71;100.00
12987;BME280;58897;51.960;5.582;2022-12-31T13:42:37;100338.50;;;13.71;100.00
12987;BME280;58897;51.960;5.582;2022-12-31T13:45:12;100317.22;;;13.74;100.00
12987;BME280;58897;51.960;5.582;2022-12-31T13:47:50;100331.63;;;13.75;100.00
12987;BME280;58897;51.960;5.582;2022-12-31T13:50:29;100321.75;;;13.67;100.00
12987;BME280;58897;51.960;5.582;2022-12-31T13:53:04;100333.91;;;13.71;100.00
12987;BME280;58897;51.960;5.582;2022-12-31T13:55:39;100326.59;;;13.72;100.00
12987;BME280;58897;51.960;5.582;2022-12-31T13:58:34;100331.00;;;13.73;100.00
12987;BME280;58897;51.960;5.582;2022-12-31T14:01:13;100325.09;;;13.69;100.00
12987;BME280;58897;51.960;5.582;2022-12-31T14:03:54;100331.00;;;13.73;100.00
12987;BME280;58897;51.960;5.582;2022-12-31T14:09:13;100343.56;;;13.80;100.00
12987;BME280;58897;51.960;5.582;2022-12-31T14:20:19;100320.84;;;13.81;100.00
12987;BME280;58897;51.960;5.582;2022-12-31T14:23:03;100329.81;;;13.82;100.00
12987;BME280;58897;51.960;5.582;2022-12-31T14:25:38;100322.56;;;13.89;100.00
12987;BME280;58897;51.960;5.582;2022-12-31T14:28:14;100323.09;;;14.05;100.00
12987;BME280;58897;51.960;5.582;2022-12-31T14:30:43;100318.75;;;14.11;100.00
12987;BME280;58897;51.960;5.582;2022-12-31T14:33:33;100303.25;;;14.05;100.00
12987;BME280;58897;51.960;5.582;2022-12-31T14:42:57;100344.31;;;13.95;100.00
12987;BME280;58897;51.960;5.582;2022-12-31T14:45:54;100339.34;;;13.99;100.00
12987;BME280;58897;51.960;5.582;2022-12-31T14:51:20;100325.47;;;13.87;100.00
12987;BME280;58897;51.960;5.582;2022-12-31T14:53:54;100327.16;;;13.88;100.00
12987;BME280;58897;51.960;5.582;2022-12-31T14:56:31;100321.94;;;13.87;100.00
12987;BME280;58897;51.960;5.582;2022-12-31T14:59:02;100329.34;;;13.99;100.00
12987;BME280;58897;51.960;5.582;2022-12-31T15:01:29;100325.91;;;13.91;100.00
12987;BME280;58897;51.960;5.582;2022-12-31T15:03:56;100327.00;;;13.96;100.00
12987;BME280;58897;51.960;5.582;2022-12-31T15:09:15;100320.91;;;14.22;100.00
12987;BME280;58897;51.960;5.582;2022-12-31T15:14:48;100319.59;;;14.11;100.00
12987;BME280;58897;51.960;5.582;2022-12-31T15:22:56;100302.06;;;14.14;100.00
12987;BME280;58897;51.960;5.582;2022-12-31T15:25:33;100319.19;;;14.14;100.00
12987;BME280;58897;51.960;5.582;2022-12-31T15:28:30;100308.13;;;14.16;100.00
12987;BME280;58897;51.960;5.582;2022-12-31T15:31:14;100303.47;;;14.31;100.00
12987;BME280;58897;51.960;5.582;2022-12-31T15:33:55;100306.41;;;14.36;100.00
12987;BME280;58897;51.960;5.582;2022-12-31T15:36:25;100309.72;;;14.32;100.00
12987;BME280;58897;51.960;5.582;2022-12-31T15:39:06;100306.53;;;14.28;100.00
12987;BME280;58897;51.960;5.582;2022-12-31T15:41:44;100300.53;;;14.33;100.00
12987;BME280;58897;51.960;5.582;2022-12-31T15:44:59;100289.00;;;14.31;100.00
12987;BME280;58897;51.960;5.582;2022-12-31T15:47:32;100290.50;;;14.33;100.00
12987;BME280;58897;51.960;5.582;2022-12-31T15:50:19;100296.25;;;14.23;100.00
12987;BME280;58897;51.960;5.582;2022-12-31T15:52:55;100311.63;;;14.31;100.00
12987;BME280;58897;51.960;5.582;2022-12-31T15:55:31;100318.75;;;14.39;100.00
12987;BME280;58897;51.960;5.582;2022-12-31T15:58:02;100302.22;;;14.34;100.00
12987;BME280;58897;51.960;5.582;2022-12-31T16:03:21;100301.28;;;14.54;100.00
12987;BME280;58897;51.960;5.582;2022-12-31T16:05:48;100310.03;;;14.50;100.00
12987;BME280;58897;51.960;5.582;2022-12-31T16:08:19;100306.59;;;14.35;100.00
12987;BME280;58897;51.960;5.582;2022-12-31T16:10:46;100319.78;;;14.31;100.00
12987;BME280;58897;51.960;5.582;2022-12-31T16:13:21;100300.91;;;14.30;100.00
12987;BME280;58897;51.960;5.582;2022-12-31T16:15:52;100299.63;;;14.26;100.00
12987;BME280;58897;51.960;5.582;2022-12-31T16:18:22;100300.44;;;14.26;100.00
12987;BME280;58897;51.960;5.582;2022-12-31T16:20:49;100305.47;;;14.22;100.00
12987;BME280;58897;51.960;5.582;2022-12-31T16:23:21;100293.34;;;14.25;100.00
12987;BME280;58897;51.960;5.582;2022-12-31T16:25:50;100295.78;;;14.41;100.00
12987;BME280;58897;51.960;5.582;2022-12-31T16:28:20;100289.88;;;14.31;100.00
12987;BME280;58897;51.960;5.582;2022-12-31T16:30:59;100281.84;;;14.23;100.00
12987;BME280;58897;51.960;5.582;2022-12-31T16:33:27;100283.09;;;14.20;100.00
12987;BME280;58897;51.960;5.582;2022-12-31T16:35:55;100275.75;;;14.21;100.00
12987;BME280;58897;51.960;5.582;2022-12-31T16:38:34;100270.00;;;14.31;100.00
12987;BME280;58897;51.960;5.582;2022-12-31T16:43:39;100278.84;;;14.11;100.00
12987;BME280;58897;51.960;5.582;2022-12-31T16:48:36;100273.19;;;14.06;100.00